Time;durP1;ratioP1;P1;durP2;ratioP2;P2;SDS_P1;SDS_P2;PMS_P1;PMS_P2;Temp;Humidity;BMP_temperature;BMP_pressure;BME280_temperature;BME280_humidity;BME280_pressure;Samples;Min_cycle;Max_cycle;Signal;HPM_P1;HPM_P2
2023/04/01 00:00:55;;;;;;;17.95;13.25;;;10.20;99.90;;;;;;5052854;28;20084;-68
2023/04/01 00:03:22;;;;;;;18.48;13.85;;;10.20;99.90;;;;;;5053656;28;20036;-66
2023/04/01 00:05:49;;;;;;;18.00;12.63;;;10.20;99.90;;;;;;5053875;28;20045;-66
2023/04/01 00:08:16;;;;;;;16.90;12.88;;;10.20;99.90;;;;;;5052597;28;20075;-66
2023/04/01 00:10:43;;;;;;;17.00;12.57;;;10.20;99.90;;;;;;5053673;28;20123;-66
2023/04/01 00:13:10;;;;;;;15.88;12.25;;;10.20;99.90;;;;;;5034186;28;20099;-66
2023/04/01 00:15:36;;;;;;;13.57;12.18;;;10.10;99.90;;;;;;5034056;28;20115;-66
2023/04/01 00:18:04;;;;;;;17.85;12.75;;;10.10;99.90;;;;;;5040499;28;20045;-66
2023/04/01 00:20:31;;;;;;;15.98;12.57;;;10.10;99.90;;;;;;5034271;28;20401;-66
2023/04/01 00:22:58;;;;;;;16.73;13.25;;;10.10;99.90;;;;;;5052412;28;20045;-66
2023/04/01 00:25:24;;;;;;;14.85;12.48;;;10.10;99.90;;;;;;5053384;28;20056;-66
2023/04/01 00:27:51;;;;;;;15.82;13.50;;;10.10;99.90;;;;;;5035732;28;20059;-66
2023/04/01 00:30:18;;;;;;;16.40;12.68;;;10.10;99.90;;;;;;5053025;28;20045;-67
2023/04/01 00:32:48;;;;;;;14.23;12.68;;;10.10;99.90;;;;;;5053349;28;20488;-66
2023/04/01 00:35:15;;;;;;;15.65;12.85;;;10.10;99.90;;;;;;5052756;28;20048;-67
2023/04/01 00:37:42;;;;;;;14.20;12.23;;;10.10;99.90;;;;;;5053207;28;20044;-67
2023/04/01 00:40:08;;;;;;;15.38;12.68;;;10.10;99.90;;;;;;5040871;28;20033;-67
2023/04/01 00:42:35;;;;;;;13.43;11.82;;;10.10;99.90;;;;;;5034082;28;20107;-67
2023/04/01 00:45:02;;;;;;;16.50;12.07;;;10.10;99.90;;;;;;5032123;28;20045;-67
2023/04/01 00:47:29;;;;;;;14.38;11.85;;;10.10;99.90;;;;;;5034299;28;20449;-67
2023/04/01 00:49:55;;;;;;;15.63;12.25;;;10.10;99.90;;;;;;5033965;28;20049;-67
2023/04/01 00:52:22;;;;;;;16.27;12.05;;;10.10;99.90;;;;;;5032542;28;20041;-67
2023/04/01 00:54:49;;;;;;;13.30;11.40;;;10.10;99.90;;;;;;5032621;28;20041;-67
2023/04/01 00:57:16;;;;;;;12.38;10.90;;;10.10;99.90;;;;;;5032610;28;20103;-67
2023/04/01 00:59:43;;;;;;;11.50;10.15;;;10.10;99.90;;;;;;5032582;28;20038;-67
2023/04/01 01:02:09;;;;;;;14.13;11.10;;;10.10;99.90;;;;;;5032376;28;20041;-67
2023/04/01 01:04:36;;;;;;;12.50;11.20;;;10.10;99.90;;;;;;5015996;28;20038;-67
2023/04/01 01:07:03;;;;;;;12.18;10.68;;;10.10;99.90;;;;;;5031750;28;20517;-67
2023/04/01 01:09:30;;;;;;;13.23;10.68;;;10.10;99.90;;;;;;5034884;28;20484;-68
2023/04/01 01:11:57;;;;;;;12.52;10.65;;;10.10;99.90;;;;;;5034795;28;20041;-68
2023/04/01 01:14:23;;;;;;;12.18;10.27;;;10.00;99.90;;;;;;5051021;28;20055;-67
2023/04/01 01:16:50;;;;;;;11.80;9.95;;;10.00;99.90;;;;;;5051297;28;20399;-67
2023/04/01 01:19:17;;;;;;;10.80;9.77;;;10.00;99.90;;;;;;5052720;28;20033;-68
2023/04/01 01:21:44;;;;;;;11.75;9.63;;;10.00;99.90;;;;;;5051268;28;20044;-67
2023/04/01 01:24:11;;;;;;;10.88;9.77;;;10.00;99.90;;;;;;5052696;28;20052;-67
2023/04/01 01:26:38;;;;;;;12.07;10.88;;;10.00;99.90;;;;;;5051293;28;20041;-67
2023/04/01 01:29:05;;;;;;;11.73;10.55;;;10.00;99.90;;;;;;5052675;28;20408;-67
2023/04/01 01:31:32;;;;;;;11.73;10.60;;;10.00;99.90;;;;;;5034746;28;20041;-67
2023/04/01 01:33:59;;;;;;;12.13;10.93;;;10.00;99.90;;;;;;5052302;28;20037;-68
2023/04/01 01:36:26;;;;;;;11.63;10.52;;;9.90;99.90;;;;;;5052353;28;20124;-67
2023/04/01 01:38:53;;;;;;;11.52;10.38;;;10.00;99.90;;;;;;5052353;28;20369;-68
2023/04/01 01:41:19;;;;;;;9.35;7.90;;;9.90;99.90;;;;;;5054497;28;20037;-68
2023/04/01 01:43:46;;;;;;;7.90;7.05;;;9.90;99.90;;;;;;5055010;28;20051;-67
2023/04/01 01:46:15;;;;;;;7.30;5.70;;;9.90;99.90;;;;;;5055207;28;20037;-68
2023/04/01 01:48:42;;;;;;;6.45;5.03;;;9.80;99.90;;;;;;5055009;28;20055;-68
2023/04/01 01:51:10;;;;;;;6.43;4.32;;;9.70;99.90;;;;;;5054953;28;20507;-68
2023/04/01 01:53:36;;;;;;;4.85;3.95;;;9.70;99.90;;;;;;5054789;28;20041;-67
2023/04/01 01:56:03;;;;;;;5.05;3.83;;;9.70;99.90;;;;;;5051218;28;20087;-66
2023/04/01 01:58:40;;;;;;;5.45;3.53;;;9.60;99.90;;;;;;5035793;28;20049;-67
2023/04/01 02:01:09;;;;;;;6.03;3.83;;;9.60;99.90;;;;;;5041178;28;20136;-67
2023/04/01 02:03:36;;;;;;;5.88;3.70;;;9.50;99.90;;;;;;5054643;28;20055;-68
2023/04/01 02:06:03;;;;;;;4.95;3.97;;;9.50;99.90;;;;;;5054702;28;20045;-68
2023/04/01 02:08:30;;;;;;;6.18;4.40;;;9.50;99.90;;;;;;5054580;28;20068;-68
2023/04/01 02:10:57;;;;;;;4.38;3.80;;;9.50;99.90;;;;;;5054642;28;20057;-68
2023/04/01 02:13:26;;;;;;;5.88;4.25;;;9.40;99.90;;;;;;5042665;28;20069;-68
2023/04/01 02:15:55;;;;;;;4.47;4.03;;;9.40;99.90;;;;;;5035432;28;20128;-68
2023/04/01 02:18:22;;;;;;;6.80;4.50;;;9.50;99.90;;;;;;5035335;28;20512;-68
2023/04/01 02:20:49;;;;;;;7.97;4.35;;;9.40;99.90;;;;;;5041666;28;20072;-68
2023/04/01 02:23:15;;;;;;;5.22;4.35;;;9.40;99.90;;;;;;5046798;28;20407;-68
2023/04/01 02:25:43;;;;;;;5.65;4.20;;;9.40;99.90;;;;;;5036271;28;20527;-68
2023/04/01 02:28:10;;;;;;;5.72;4.50;;;9.40;99.90;;;;;;5035211;28;20045;-68
2023/04/01 02:30:37;;;;;;;5.07;4.20;;;9.40;99.90;;;;;;5046619;28;20045;-68
2023/04/01 02:33:04;;;;;;;4.50;3.72;;;9.40;99.90;;;;;;5047583;28;20033;-68
2023/04/01 02:35:31;;;;;;;4.68;3.20;;;9.40;99.90;;;;;;5043118;28;20041;-68
2023/04/01 02:37:58;;;;;;;6.65;3.85;;;9.40;99.90;;;;;;5035235;28;20373;-68
2023/04/01 02:40:25;;;;;;;4.88;3.42;;;9.40;99.90;;;;;;5047755;28;20036;-68
2023/04/01 02:42:51;;;;;;;6.78;3.83;;;9.40;99.90;;;;;;5054168;28;20124;-68
2023/04/01 02:45:18;;;;;;;4.07;3.40;;;9.40;99.90;;;;;;5053944;28;20041;-68
2023/04/01 02:47:45;;;;;;;5.50;3.83;;;9.40;99.90;;;;;;5038029;28;20087;-68
2023/04/01 02:50:12;;;;;;;4.35;3.40;;;9.30;99.90;;;;;;5035025;28;20156;-68
2023/04/01 02:52:39;;;;;;;4.82;3.88;;;9.30;99.90;;;;;;5040530;28;20087;-67
2023/04/01 02:55:06;;;;;;;6.03;3.95;;;9.40;99.90;;;;;;5051833;28;20045;-67
2023/04/01 02:57:33;;;;;;;4.72;3.50;;;9.40;99.90;;;;;;5053826;28;20377;-68
2023/04/01 02:59:59;;;;;;;3.90;3.10;;;9.40;99.90;;;;;;5044462;28;20034;-67
2023/04/01 03:02:26;;;;;;;4.47;3.38;;;9.40;99.90;;;;;;5035853;28;20041;-67
2023/04/01 03:04:53;;;;;;;4.43;3.20;;;9.40;99.90;;;;;;5034432;28;20045;-67
2023/04/01 03:07:20;;;;;;;4.22;2.88;;;9.40;99.90;;;;;;5043556;28;20045;-68
2023/04/01 03:09:48;;;;;;;4.28;3.10;;;9.50;99.90;;;;;;5034613;28;20060;-68
2023/04/01 03:12:14;;;;;;;4.03;2.90;;;9.40;99.90;;;;;;5035870;28;20497;-68
2023/04/01 03:14:48;;;;;;;3.55;2.70;;;9.50;99.90;;;;;;5035303;28;20045;-68
2023/04/01 03:17:16;;;;;;;4.00;3.20;;;9.40;99.90;;;;;;5034394;28;20416;-68
2023/04/01 03:19:42;;;;;;;4.65;2.83;;;9.50;99.90;;;;;;5046926;28;20116;-68
2023/04/01 03:22:11;;;;;;;3.42;2.92;;;9.40;99.90;;;;;;5053304;28;20571;-68
2023/04/01 03:24:37;;;;;;;4.40;2.97;;;9.40;99.90;;;;;;5048016;28;20095;-69
2023/04/01 03:27:04;;;;;;;4.28;3.38;;;9.40;99.90;;;;;;5037064;28;20556;-69
2023/04/01 03:29:31;;;;;;;4.97;2.97;;;9.40;99.90;;;;;;5038614;28;20095;-68
2023/04/01 03:31:58;;;;;;;4.45;3.15;;;9.30;99.90;;;;;;5053311;28;20091;-69
2023/04/01 03:34:25;;;;;;;3.38;3.03;;;9.30;99.90;;;;;;5031869;28;20037;-69
2023/04/01 03:36:52;;;;;;;4.68;2.60;;;9.30;99.90;;;;;;5033804;28;20069;-69
2023/04/01 03:39:19;;;;;;;3.85;2.58;;;9.30;99.90;;;;;;5033968;28;20044;-69
2023/04/01 03:41:46;;;;;;;4.72;2.95;;;9.20;99.90;;;;;;5050639;28;20045;-69
2023/04/01 03:44:13;;;;;;;3.40;3.00;;;9.20;99.90;;;;;;5036053;28;20038;-69
2023/04/01 03:46:40;;;;;;;3.25;2.60;;;9.20;99.90;;;;;;5033625;28;20041;-69
2023/04/01 03:49:11;;;;;;;4.15;2.72;;;9.20;99.90;;;;;;5035041;28;20060;-69
2023/04/01 03:51:38;;;;;;;4.18;2.70;;;9.20;99.90;;;;;;5033507;28;20041;-69
2023/04/01 03:54:05;;;;;;;3.83;2.53;;;9.20;99.90;;;;;;5033479;28;20042;-68
2023/04/01 03:56:32;;;;;;;3.58;2.33;;;9.20;99.90;;;;;;5044204;28;20407;-69
2023/04/01 03:58:59;;;;;;;3.25;2.33;;;9.20;99.90;;;;;;5054068;28;20048;-69
2023/04/01 04:01:26;;;;;;;3.50;2.60;;;9.20;99.90;;;;;;5035726;28;20456;-68
2023/04/01 04:03:55;;;;;;;3.95;3.00;;;9.20;99.90;;;;;;5041272;28;20049;-69
2023/04/01 04:06:22;;;;;;;3.90;2.90;;;9.20;99.90;;;;;;5052542;28;20512;-68
2023/04/01 04:08:49;;;;;;;2.85;2.20;;;9.20;99.90;;;;;;5019145;28;20092;-68
2023/04/01 04:11:15;;;;;;;4.35;2.60;;;9.20;99.90;;;;;;5033294;28;20499;-68
2023/04/01 04:13:42;;;;;;;3.38;2.35;;;9.20;99.90;;;;;;5036667;28;20056;-68
2023/04/01 04:16:09;;;;;;;3.40;2.13;;;9.20;99.90;;;;;;5052350;28;20098;-68
2023/04/01 04:18:40;;;;;;;2.97;2.45;;;9.20;99.90;;;;;;5052202;28;20550;-68
2023/04/01 04:21:07;;;;;;;3.45;2.60;;;9.20;99.90;;;;;;5048093;28;20052;-68
2023/04/01 04:23:34;;;;;;;4.55;2.47;;;9.30;99.90;;;;;;5044785;28;20048;-68
2023/04/01 04:26:01;;;;;;;3.70;2.20;;;9.30;99.90;;;;;;5051961;28;20041;-68
2023/04/01 04:28:28;;;;;;;2.78;2.22;;;9.30;99.90;;;;;;5052034;28;20045;-68
2023/04/01 04:30:57;;;;;;;2.63;2.17;;;9.30;99.90;;;;;;5036146;28;20057;-67
2023/04/01 04:33:23;;;;;;;3.13;2.38;;;9.30;99.90;;;;;;5041134;28;20536;-68
2023/04/01 04:35:50;;;;;;;3.38;2.78;;;9.30;99.90;;;;;;5032847;28;20057;-67
2023/04/01 04:38:17;;;;;;;3.55;2.50;;;9.30;99.90;;;;;;5032889;28;20095;-66
2023/04/01 04:40:44;;;;;;;3.70;2.17;;;9.30;99.90;;;;;;5032898;28;20045;-68
2023/04/01 04:43:12;;;;;;;2.75;2.05;;;9.30;99.90;;;;;;5032859;28;20033;-67
2023/04/01 04:45:39;;;;;;;2.42;1.70;;;9.30;99.90;;;;;;5032809;28;20091;-67
2023/04/01 04:48:06;;;;;;;2.58;1.92;;;9.20;99.90;;;;;;5032478;28;20037;-67
2023/04/01 04:50:33;;;;;;;2.35;1.80;;;9.20;99.90;;;;;;5036479;28;20045;-67
2023/04/01 04:53:00;;;;;;;2.50;1.90;;;9.10;99.90;;;;;;5051903;28;20515;-67
2023/04/01 04:55:27;;;;;;;2.67;2.05;;;9.10;99.90;;;;;;5048043;28;20048;-69
2023/04/01 04:58:14;;;;;;;2.90;1.70;;;9.10;99.90;;;;;;5032465;28;20065;-68
2023/04/01 05:00:42;;;;;;;4.30;2.10;;;9.10;99.90;;;;;;5038833;28;20068;-68
2023/04/01 05:03:17;;;;;;;3.95;2.35;;;9.10;99.90;;;;;;5032435;28;20048;-68
2023/04/01 05:05:44;;;;;;;3.67;2.15;;;9.10;99.90;;;;;;5032281;28;20140;-69
2023/04/01 05:08:11;;;;;;;3.83;2.00;;;9.10;99.90;;;;;;5032263;28;20060;-68
2023/04/01 05:10:38;;;;;;;2.95;2.42;;;9.20;99.90;;;;;;5032259;28;20069;-67
2023/04/01 05:13:05;;;;;;;5.13;2.72;;;9.20;99.90;;;;;;5032046;28;20484;-68
2023/04/01 05:15:32;;;;;;;3.50;2.38;;;9.20;99.90;;;;;;5032039;28;20488;-68
2023/04/01 05:18:00;;;;;;;3.75;2.25;;;9.20;99.90;;;;;;5032277;28;20380;-68
2023/04/01 05:20:26;;;;;;;4.45;2.50;;;9.20;99.90;;;;;;5032285;28;20049;-69
2023/04/01 05:22:53;;;;;;;3.80;2.45;;;9.20;99.90;;;;;;5032123;28;20037;-68
2023/04/01 05:25:20;;;;;;;3.38;2.40;;;9.10;99.90;;;;;;5032083;28;20566;-67
2023/04/01 05:27:47;;;;;;;3.40;2.13;;;9.20;99.90;;;;;;5032156;28;20053;-67
2023/04/01 05:30:15;;;;;;;4.85;2.70;;;9.30;99.90;;;;;;5032735;28;20140;-68
2023/04/01 05:33:02;;;;;;;3.38;2.25;;;9.30;99.90;;;;;;5034416;28;20127;-67
2023/04/01 05:35:29;;;;;;;3.05;2.53;;;9.20;99.90;;;;;;5031904;28;20046;-67
2023/04/01 05:37:56;;;;;;;2.45;1.80;;;9.20;99.90;;;;;;5032014;28;20052;-67
2023/04/01 05:40:23;;;;;;;3.05;2.38;;;9.10;99.90;;;;;;5040589;28;20424;-67
2023/04/01 05:42:50;;;;;;;3.22;2.17;;;9.10;99.90;;;;;;5051198;28;20081;-67
2023/04/01 05:45:17;;;;;;;3.47;2.10;;;9.20;99.90;;;;;;5051017;28;20049;-67
2023/04/01 05:48:03;;;;;;;3.05;2.22;;;9.20;99.90;;;;;;5047761;28;20060;-67
2023/04/01 05:50:37;;;;;;;2.80;2.10;;;9.20;99.90;;;;;;5031936;28;20057;-66
2023/04/01 05:53:04;;;;;;;5.00;2.47;;;9.20;99.90;;;;;;5031907;28;20052;-67
2023/04/01 05:55:31;;;;;;;3.30;2.42;;;9.20;99.90;;;;;;5031852;28;20554;-67
2023/04/01 05:57:58;;;;;;;4.15;3.00;;;9.20;99.90;;;;;;5032167;28;20038;-67
2023/04/01 06:00:26;;;;;;;4.10;2.75;;;9.20;99.90;;;;;;5031950;28;20136;-67
2023/04/01 06:02:54;;;;;;;3.38;2.40;;;9.30;99.90;;;;;;5031910;28;20121;-67
2023/04/01 06:05:22;;;;;;;3.95;2.72;;;9.30;99.90;;;;;;5032111;28;20137;-68
2023/04/01 06:07:49;;;;;;;3.83;3.22;;;9.30;99.90;;;;;;5031855;28;20452;-68
2023/04/01 06:10:16;;;;;;;4.43;2.97;;;9.30;99.90;;;;;;5038541;28;20049;-69
2023/04/01 06:12:44;;;;;;;3.70;3.30;;;9.30;99.90;;;;;;5050887;28;20049;-69
2023/04/01 06:15:11;;;;;;;5.05;3.40;;;9.30;99.90;;;;;;5050770;28;20049;-68
2023/04/01 06:17:37;;;;;;;4.63;3.42;;;9.20;99.90;;;;;;5050813;28;20045;-67
2023/04/01 06:20:05;;;;;;;5.00;3.83;;;9.20;99.90;;;;;;5051102;28;20366;-67
2023/04/01 06:22:33;;;;;;;5.10;3.63;;;9.20;99.90;;;;;;5050852;28;20124;-68
2023/04/01 06:25:05;;;;;;;5.00;3.50;;;9.20;99.90;;;;;;5051039;28;20057;-68
2023/04/01 06:27:32;;;;;;;3.88;3.47;;;9.20;99.90;;;;;;5052446;28;20531;-67
2023/04/01 06:29:59;;;;;;;4.28;3.17;;;9.20;99.90;;;;;;5054420;28;20127;-68
2023/04/01 06:32:25;;;;;;;4.88;2.92;;;9.10;99.90;;;;;;5054461;28;20068;-67
2023/04/01 06:34:52;;;;;;;5.05;2.90;;;9.10;99.90;;;;;;5054369;28;20043;-68
2023/04/01 06:37:19;;;;;;;3.95;3.33;;;9.10;99.90;;;;;;5054248;28;20064;-67
2023/04/01 06:39:46;;;;;;;4.50;2.72;;;9.10;99.90;;;;;;5045048;28;20044;-68
2023/04/01 06:42:13;;;;;;;3.67;2.72;;;9.10;99.90;;;;;;5048525;28;20112;-68
2023/04/01 06:44:40;;;;;;;5.28;3.13;;;9.10;99.90;;;;;;5035205;28;20056;-67
2023/04/01 06:47:25;;;;;;;3.97;2.92;;;9.10;99.90;;;;;;5050716;28;20126;-67
2023/04/01 06:50:18;;;;;;;4.38;3.05;;;9.00;99.90;;;;;;5054716;28;20077;-67
2023/04/01 06:52:54;;;;;;;4.75;3.15;;;8.90;99.90;;;;;;5055136;28;20482;-68
2023/04/01 06:55:48;;;;;;;4.63;3.50;;;8.90;99.90;;;;;;5054555;28;20114;-67
2023/04/01 06:58:25;;;;;;;5.25;3.35;;;8.80;99.90;;;;;;5053997;28;20356;-67
2023/04/01 07:00:52;;;;;;;4.35;3.10;;;8.80;99.90;;;;;;5053990;28;20045;-68
2023/04/01 07:03:19;;;;;;;4.35;3.60;;;8.80;99.90;;;;;;5053749;28;20037;-68
2023/04/01 07:05:46;;;;;;;5.43;3.88;;;8.90;99.90;;;;;;5055097;28;20037;-65
2023/04/01 07:08:14;;;;;;;5.78;3.60;;;8.90;99.90;;;;;;5053709;28;20037;-67
2023/04/01 07:10:42;;;;;;;5.60;3.60;;;8.90;99.90;;;;;;5054989;28;20072;-67
2023/04/01 07:13:28;;;;;;;5.82;4.03;;;8.80;99.90;;;;;;5054767;28;20519;-66
2023/04/01 07:15:58;;;;;;;5.70;4.05;;;8.90;99.90;;;;;;5034490;28;20057;-66
2023/04/01 07:18:28;;;;;;;6.53;4.18;;;8.90;99.90;;;;;;5034317;28;20504;-67
2023/04/01 07:20:55;;;;;;;7.95;4.72;;;8.90;99.90;;;;;;5034339;28;20488;-67
2023/04/01 07:23:22;;;;;;;8.02;4.38;;;9.00;99.90;;;;;;5034444;28;20049;-66
2023/04/01 07:26:00;;;;;;;8.68;4.68;;;9.00;99.90;;;;;;5034452;28;20069;-66
2023/04/01 07:28:26;;;;;;;9.32;4.45;;;9.10;99.90;;;;;;5035449;28;20111;-67
2023/04/01 07:31:00;;;;;;;7.03;4.70;;;9.10;99.90;;;;;;5018996;28;20059;-68
2023/04/01 07:33:27;;;;;;;7.03;4.63;;;9.10;99.90;;;;;;5037109;28;20053;-68
2023/04/01 07:35:54;;;;;;;6.97;4.38;;;9.10;99.90;;;;;;5052963;28;20045;-66
2023/04/01 07:38:21;;;;;;;5.00;3.88;;;9.30;99.90;;;;;;5053091;28;20045;-68
2023/04/01 07:40:47;;;;;;;7.03;3.92;;;9.30;99.90;;;;;;5053110;28;20508;-69
2023/04/01 07:43:14;;;;;;;7.40;3.95;;;9.30;99.90;;;;;;5054105;28;20381;-67
2023/04/01 07:45:47;;;;;;;5.55;3.92;;;9.30;99.90;;;;;;5053135;28;20106;-67
2023/04/01 07:48:14;;;;;;;6.93;3.95;;;9.30;99.90;;;;;;5053179;28;20068;-67
2023/04/01 07:50:41;;;;;;;6.00;4.13;;;9.30;99.90;;;;;;5051969;28;20045;-67
2023/04/01 07:53:10;;;;;;;9.18;4.97;;;9.20;99.90;;;;;;5052909;28;20565;-66
2023/04/01 07:55:37;;;;;;;7.55;5.57;;;9.20;99.90;;;;;;5052496;28;20033;-68
2023/04/01 07:58:05;;;;;;;6.97;4.70;;;9.20;99.90;;;;;;5036479;28;20087;-67
2023/04/01 08:00:36;;;;;;;7.07;4.50;;;9.10;99.90;;;;;;5052899;28;20037;-68
2023/04/01 08:03:13;;;;;;;5.95;4.03;;;9.10;99.90;;;;;;5052607;28;20045;-68
2023/04/01 08:05:41;;;;;;;7.32;4.68;;;9.10;99.90;;;;;;5053114;28;20075;-67
2023/04/01 08:08:15;;;;;;;6.40;4.65;;;9.00;99.90;;;;;;5033543;28;20132;-69
2023/04/01 08:11:20;;;;;;;8.20;5.20;;;9.10;99.90;;;;;;5051565;28;20053;-67
2023/04/01 08:14:06;;;;;;;6.95;5.22;;;9.00;99.90;;;;;;5053392;28;20056;-67
2023/04/01 08:16:35;;;;;;;6.03;4.68;;;9.00;99.90;;;;;;5052380;28;20397;-68
2023/04/01 08:19:04;;;;;;;8.13;5.75;;;9.00;99.90;;;;;;5052222;28;20040;-68
2023/04/01 08:21:33;;;;;;;8.23;6.30;;;9.10;99.90;;;;;;5052076;28;20132;-67
2023/04/01 08:24:01;;;;;;;10.73;7.10;;;9.10;99.90;;;;;;5051941;28;20037;-68
2023/04/01 08:26:29;;;;;;;10.98;6.95;;;9.10;99.90;;;;;;5051961;28;20076;-68
2023/04/01 08:28:56;;;;;;;9.65;6.88;;;9.20;99.90;;;;;;5052029;28;20033;-68
2023/04/01 08:31:24;;;;;;;12.63;7.00;;;9.20;99.90;;;;;;5052096;28;20069;-68
2023/04/01 08:33:51;;;;;;;9.70;6.90;;;9.30;99.90;;;;;;5053498;28;20032;-68
2023/04/01 08:36:18;;;;;;;8.50;5.57;;;9.30;99.90;;;;;;5052057;28;20128;-68
2023/04/01 08:38:51;;;;;;;6.60;4.80;;;9.30;99.90;;;;;;5052141;28;20068;-68
2023/04/01 08:41:18;;;;;;;7.63;5.93;;;9.30;99.90;;;;;;5051861;28;20045;-68
2023/04/01 08:44:23;;;;;;;7.80;5.95;;;9.30;99.90;;;;;;5051648;28;20036;-68
2023/04/01 08:46:50;;;;;;;8.75;5.53;;;9.30;99.90;;;;;;5051498;28;20052;-66
2023/04/01 08:49:17;;;;;;;7.45;5.15;;;9.30;99.90;;;;;;5034615;28;20049;-67
2023/04/01 08:51:44;;;;;;;8.38;5.18;;;9.30;99.90;;;;;;5037375;28;20429;-68
2023/04/01 08:54:11;;;;;;;7.30;4.97;;;9.40;99.90;;;;;;5051764;28;20039;-67
2023/04/01 08:56:38;;;;;;;7.72;4.65;;;9.40;99.90;;;;;;5051840;28;20087;-67
2023/04/01 08:59:10;;;;;;;8.38;4.95;;;9.50;99.90;;;;;;5051772;28;20037;-67
2023/04/01 09:01:38;;;;;;;6.78;5.00;;;9.50;99.90;;;;;;5053164;28;20112;-67
2023/04/01 09:04:18;;;;;;;8.43;4.93;;;9.50;99.90;;;;;;5051508;28;20046;-68
2023/04/01 09:06:45;;;;;;;7.00;4.88;;;9.60;99.90;;;;;;5051697;28;20068;-68
2023/04/01 09:09:14;;;;;;;7.15;4.97;;;9.50;99.90;;;;;;5051563;28;20041;-67
2023/04/01 09:11:41;;;;;;;6.72;5.03;;;9.50;99.90;;;;;;5051557;28;20045;-67
2023/04/01 09:14:24;;;;;;;12.93;8.77;;;9.60;99.90;;;;;;5051163;28;20041;-68
2023/04/01 09:17:04;;;;;;;7.72;5.20;;;9.60;99.90;;;;;;5051356;28;20049;-68
2023/04/01 09:19:31;;;;;;;6.95;4.75;;;9.50;99.90;;;;;;5051585;28;20052;-69
2023/04/01 09:22:02;;;;;;;5.68;4.53;;;9.40;99.90;;;;;;5052741;28;20451;-67
2023/04/01 09:24:29;;;;;;;7.80;4.60;;;9.50;99.90;;;;;;5051609;28;20048;-67
2023/04/01 09:26:56;;;;;;;8.25;5.55;;;9.50;99.90;;;;;;5051305;28;20037;-68
2023/04/01 09:29:25;;;;;;;7.93;4.93;;;9.60;99.90;;;;;;5052818;28;20109;-68
2023/04/01 09:31:51;;;;;;;8.20;5.00;;;9.60;99.90;;;;;;5051379;28;20033;-67
2023/04/01 09:34:35;;;;;;;6.28;4.20;;;9.50;99.90;;;;;;5051305;28;20492;-67
2023/04/01 09:37:03;;;;;;;6.10;4.25;;;9.60;99.90;;;;;;5051377;28;20048;-67
2023/04/01 09:39:30;;;;;;;7.15;4.65;;;9.70;99.90;;;;;;5052593;28;20432;-67
2023/04/01 09:41:57;;;;;;;8.13;4.72;;;9.80;99.90;;;;;;5049309;28;20044;-68
2023/04/01 09:44:34;;;;;;;4.28;3.50;;;9.80;99.90;;;;;;5032260;28;20466;-68
2023/04/01 09:47:10;;;;;;;6.72;3.78;;;9.90;99.90;;;;;;5032294;28;20045;-67
2023/04/01 09:49:37;;;;;;;5.63;3.58;;;9.80;99.90;;;;;;5033546;28;20116;-68
2023/04/01 09:52:05;;;;;;;5.30;3.58;;;9.90;99.90;;;;;;5048498;28;20496;-68
2023/04/01 09:54:32;;;;;;;4.20;3.60;;;9.90;99.90;;;;;;5050958;28;20128;-67
2023/04/01 09:56:58;;;;;;;6.75;3.83;;;9.90;99.90;;;;;;5051144;28;20037;-67
2023/04/01 09:59:26;;;;;;;7.15;4.28;;;9.90;99.90;;;;;;5034758;28;20489;-69
2023/04/01 10:02:11;;;;;;;7.07;3.78;;;9.90;99.90;;;;;;5053641;28;20052;-69
2023/04/01 10:04:39;;;;;;;5.72;4.05;;;9.90;99.90;;;;;;5054973;28;20490;-68
2023/04/01 10:07:06;;;;;;;6.63;4.20;;;10.00;99.90;;;;;;5055054;28;20068;-68
2023/04/01 10:09:33;;;;;;;4.50;3.92;;;10.00;99.90;;;;;;5054757;28;20045;-67
2023/04/01 10:11:59;;;;;;;5.75;4.25;;;10.00;99.90;;;;;;5056304;28;20037;-68
2023/04/01 10:14:27;;;;;;;7.53;4.40;;;10.10;99.90;;;;;;5055816;28;20045;-69
2023/04/01 10:16:55;;;;;;;7.13;3.60;;;10.10;99.90;;;;;;5054745;28;20491;-68
2023/04/01 10:19:22;;;;;;;6.43;3.40;;;9.90;99.90;;;;;;5054627;28;20045;-68
2023/04/01 10:21:50;;;;;;;6.20;3.33;;;9.80;99.90;;;;;;5054638;28;20060;-68
2023/04/01 10:24:17;;;;;;;5.05;3.30;;;9.80;99.90;;;;;;5054421;28;20464;-67
2023/04/01 10:26:45;;;;;;;5.47;2.58;;;9.90;99.90;;;;;;5042057;28;20105;-69
2023/04/01 10:29:35;;;;;;;4.47;2.78;;;10.00;99.90;;;;;;5052207;28;20157;-68
2023/04/01 10:32:02;;;;;;;5.75;2.38;;;10.10;99.90;;;;;;5055713;28;20093;-67
2023/04/01 10:34:29;;;;;;;4.72;3.25;;;10.10;99.90;;;;;;5054536;28;20045;-67
2023/04/01 10:36:56;;;;;;;6.18;2.80;;;10.10;99.90;;;;;;5054253;28;20069;-67
2023/04/01 10:39:32;;;;;;;5.30;2.97;;;10.10;99.90;;;;;;5046592;28;20136;-68
2023/04/01 10:42:17;;;;;;;5.30;3.00;;;10.20;99.90;;;;;;5054477;28;20098;-68
2023/04/01 10:45:07;;;;;;;3.75;2.50;;;10.20;99.90;;;;;;5046795;28;20148;-66
2023/04/01 10:47:39;;;;;;;3.88;2.55;;;10.20;99.90;;;;;;5035139;28;20049;-67
2023/04/01 10:50:06;;;;;;;5.00;2.97;;;10.20;99.90;;;;;;5036021;28;20539;-68
2023/04/01 10:52:32;;;;;;;5.75;3.17;;;10.20;99.90;;;;;;5055367;28;20672;-68
2023/04/01 10:55:22;;;;;;;6.07;3.20;;;10.20;99.90;;;;;;5054262;28;20045;-66
2023/04/01 10:58:09;;;;;;;4.70;3.20;;;10.20;99.90;;;;;;5054163;28;20064;-68
2023/04/01 11:00:55;;;;;;;5.53;3.00;;;10.20;99.90;;;;;;5055183;28;20127;-68
2023/04/01 11:03:40;;;;;;;5.18;2.90;;;10.30;99.90;;;;;;5055251;28;20068;-67
2023/04/01 11:06:28;;;;;;;5.88;3.30;;;10.50;99.90;;;;;;5030933;28;20515;-67
2023/04/01 11:08:54;;;;;;;5.03;3.38;;;10.60;99.90;;;;;;5035226;28;20046;-68
2023/04/01 11:11:22;;;;;;;5.32;3.63;;;10.80;99.90;;;;;;5033091;28;20048;-67
2023/04/01 11:13:49;;;;;;;5.30;3.72;;;10.80;99.90;;;;;;5032569;28;20060;-67
2023/04/01 11:16:16;;;;;;;5.57;3.88;;;10.80;99.90;;;;;;5032824;28;20037;-67
2023/04/01 11:18:45;;;;;;;5.47;3.78;;;10.80;99.90;;;;;;5049774;28;20099;-67
2023/04/01 11:21:12;;;;;;;5.75;4.15;;;10.70;99.90;;;;;;5046264;28;20510;-67
2023/04/01 11:23:41;;;;;;;6.72;4.30;;;10.60;99.90;;;;;;5034035;28;20046;-67
2023/04/01 11:26:11;;;;;;;7.57;5.10;;;10.50;99.90;;;;;;5034833;28;20488;-66
2023/04/01 11:28:56;;;;;;;8.60;5.18;;;10.40;99.90;;;;;;5034128;28;20060;-67
2023/04/01 11:31:23;;;;;;;8.50;5.35;;;10.30;99.90;;;;;;5032625;28;20485;-67
2023/04/01 11:33:50;;;;;;;10.27;5.43;;;10.30;99.90;;;;;;5034973;28;20050;-67
2023/04/01 11:36:17;;;;;;;10.40;5.13;;;10.20;99.90;;;;;;5046317;28;20041;-69
2023/04/01 11:38:45;;;;;;;7.38;4.88;;;10.20;99.90;;;;;;5032642;28;20041;-67
2023/04/01 11:41:38;;;;;;;10.15;5.28;;;10.20;99.90;;;;;;5048225;28;20564;-68
2023/04/01 11:44:28;;;;;;;8.98;6.10;;;10.30;99.90;;;;;;5053443;28;20053;-68
2023/04/01 11:47:04;;;;;;;9.30;5.25;;;10.40;99.90;;;;;;5040179;28;20053;-68
2023/04/01 11:49:31;;;;;;;9.45;5.40;;;10.60;99.90;;;;;;5052645;28;20064;-68
2023/04/01 11:52:09;;;;;;;11.70;5.60;;;10.60;99.90;;;;;;5052380;28;20529;-67
2023/04/01 11:54:36;;;;;;;8.60;5.63;;;10.60;99.90;;;;;;5051925;28;20492;-67
2023/04/01 11:57:02;;;;;;;12.05;5.57;;;10.40;99.90;;;;;;5052626;28;20076;-66
2023/04/01 11:59:29;;;;;;;11.07;5.85;;;10.40;99.90;;;;;;5052591;28;20742;-68
2023/04/01 12:01:56;;;;;;;10.73;5.00;;;10.50;99.90;;;;;;5052520;28;20396;-67
2023/04/01 12:04:23;;;;;;;8.52;4.90;;;10.50;99.90;;;;;;5052481;28;20036;-67
2023/04/01 12:06:50;;;;;;;10.10;5.10;;;10.60;99.90;;;;;;5052732;28;20055;-69
2023/04/01 12:09:17;;;;;;;11.38;5.22;;;10.70;99.90;;;;;;5051959;28;20045;-66
2023/04/01 12:11:44;;;;;;;9.02;4.82;;;10.80;99.90;;;;;;5046108;28;20462;-66
2023/04/01 12:14:10;;;;;;;11.93;5.70;;;10.80;99.90;;;;;;5053520;28;20048;-67
2023/04/01 12:16:37;;;;;;;8.82;5.07;;;10.60;99.90;;;;;;5053503;28;20041;-66
2023/04/01 12:19:04;;;;;;;10.73;5.47;;;10.70;99.90;;;;;;5053532;28;20059;-67
2023/04/01 12:21:32;;;;;;;9.60;4.68;;;10.70;99.90;;;;;;5053888;28;20049;-67
2023/04/01 12:23:59;;;;;;;8.60;4.05;;;10.70;99.90;;;;;;5040528;28;20045;-68
2023/04/01 12:26:27;;;;;;;8.73;4.05;;;10.70;99.90;;;;;;5046951;28;20041;-68
2023/04/01 12:28:53;;;;;;;7.60;4.03;;;10.90;99.90;;;;;;5054220;28;20045;-67
2023/04/01 12:31:20;;;;;;;8.48;4.03;;;10.90;99.90;;;;;;5033329;28;20037;-68
2023/04/01 12:33:47;;;;;;;9.32;4.63;;;10.80;99.90;;;;;;5034513;28;20120;-67
2023/04/01 12:36:14;;;;;;;8.93;4.20;;;10.80;99.90;;;;;;5035733;28;20073;-68
2023/04/01 12:38:42;;;;;;;10.45;4.07;;;10.70;99.90;;;;;;5032996;28;20042;-68
2023/04/01 12:41:10;;;;;;;7.40;3.40;;;10.50;99.90;;;;;;5038299;28;20112;-65
2023/04/01 12:43:36;;;;;;;8.38;3.40;;;10.50;99.90;;;;;;5053408;28;20040;-65
2023/04/01 12:46:03;;;;;;;8.75;2.95;;;10.60;99.90;;;;;;5053305;28;20037;-64
2023/04/01 12:48:30;;;;;;;7.47;3.10;;;10.70;99.90;;;;;;5043466;28;20404;-64
2023/04/01 12:50:57;;;;;;;10.48;3.20;;;10.70;99.90;;;;;;5033426;28;20156;-67
2023/04/01 12:53:23;;;;;;;9.35;2.65;;;10.80;99.90;;;;;;5048845;28;20037;-65
2023/04/01 12:55:52;;;;;;;6.45;3.10;;;10.90;99.90;;;;;;5033958;28;20033;-66
2023/04/01 12:58:20;;;;;;;6.18;3.03;;;10.90;99.90;;;;;;5038571;28;20453;-65
2023/04/01 13:00:47;;;;;;;8.90;2.67;;;11.00;99.90;;;;;;5052952;28;20045;-66